Austin, TX (78741)

7:34 PM CDT on August 27, 2015 (GMT -0500)
Travis Heights | | Change Station
CLOSE
Current Station
Personal Weather Station
Location: Austin, TX
Elevation: 548 ft
Nearby Weather Stations

Elev 548 ft 30.25 °N, 97.75 °W | Updated 50 seconds ago

Partly Cloudy
Partly Cloudy
90.9 °F
Feels Like 90 °F
N
0.0
Wind Variable Wind from South
Gusts 0.0 mph

Today
High -- | Low -- °F
--% Chance of Precip.
Yesterday
High -- | Low -- °F
Precip. -- in
7:04 AM 7:59 PM
Waxing Gibbous, 95% visible
Pressure 29.93 in
Visibility 10.0 miles
Clouds Mostly Cloudy 20000 ft
Mostly Cloudy 25000 ft
Heat Index 90 °F
Dew Point 59 °F
Humidity 34%
Rainfall 0.00 in
Snow Depth Not available.
UV 0.0 out of 12
Pollen 6.00 out of 12
Air Quality Not available.
Flu Activity Not available.
METAR KAUS 272353Z 07007KT 10SM BKN200 BKN250 34/13 A2996 RMK AO2 SLP134 T03390133 10356 20328 56010
Pressure 29.93 in
Visibility 10.0 miles
Clouds Mostly Cloudy 20000 ft
Mostly Cloudy 25000 ft
Heat Index 90 °F
Dew Point 59 °F
Humidity 34%
Rainfall 0.00 in
Snow Depth Not available.
UV 0.0 out of 12
Pollen 6.00 out of 12
Air Quality Not available.
Flu Activity Not available.
METAR KAUS 272353Z 07007KT 10SM BKN200 BKN250 34/13 A2996 RMK AO2 SLP134 T03390133 10356 20328 56010

10-Day Weather Forecast

×

Almanac

Astronomy

Aug. 27, 2015 Rise Set
Actual Time
Civil Twilight
Nautical Twilight
Astronomical Twilight
Moon
Length of Visible Light
Length of Day
Tomorrow will be .
, % of the Moon is Illuminated

Today's Extremes

State Highs State Lows

Community

WunderPhotos

Upload Photos

1,850,276 photos uploaded!

WunderBlogs® & News

Nearby

Air Quality

  Air Quality AQ Index Pollutant
Not available.

Snow Depth

Station Depth Elevation

Earthquake Activity

City Distance Mag. Time & Date
Minimum magnitude displayed is 2.5.

Coastal Water Temperatures

Place Temperature

Stations

Nearby Weather Stations

Station Location Temp. Windchill Dew Point Humidity Wind Precip. Elev Updated Type